Terminal Aerodrome Forecast
Issued by NWS Charleston, WV

Current Version | Previous Version | Graphics & Text | Print | Product List | Glossary On
Versions: 1 2 3 4 5 6 7 8 9 10 11 12 13 14 15 16 17 18 19 20 21 22 23
000
FTUS41 KRLX 301610 AAC
TAFPKB
TAF AMD
KPKB 301610Z 3016/0112 20007KT P6SM SCT006 BKN100
      TEMPO 3016/3019 BKN006
     FM302300 21007KT P6SM BKN035=

USA.gov is the U.S. government's official web portal to all federal, state and local government web resources and services.